createdAt,value
2018-04-16T00:01:47.082Z,15.31
2018-04-16T00:07:16.912Z,15.51
2018-04-16T00:09:45.974Z,15.53
2018-04-16T00:15:25.302Z,15.46
2018-04-16T00:23:42.734Z,15.50
2018-04-16T00:26:22.507Z,15.53
2018-04-16T00:35:19.463Z,15.57
2018-04-16T00:38:01.070Z,15.55
2018-04-16T00:40:38.147Z,15.42
2018-04-16T00:43:12.369Z,15.37
2018-04-16T00:45:47.440Z,15.38
2018-04-16T00:48:30.627Z,15.34
2018-04-16T00:51:12.076Z,15.35
2018-04-16T00:53:57.984Z,15.35
2018-04-16T00:56:39.264Z,15.28
2018-04-16T00:59:20.035Z,15.09
2018-04-16T01:01:55.786Z,14.85
2018-04-16T01:04:28.905Z,14.93
2018-04-16T01:07:01.968Z,14.94
2018-04-16T01:09:35.029Z,15.03
2018-04-16T01:12:08.080Z,15.05
2018-04-16T01:14:41.216Z,15.08
2018-04-16T01:17:14.260Z,15.10
2018-04-16T01:19:47.364Z,15.12
2018-04-16T01:22:20.381Z,14.98
2018-04-16T01:24:54.098Z,14.78
2018-04-16T01:27:28.576Z,14.42
2018-04-16T01:30:01.833Z,14.11
2018-04-16T01:32:36.636Z,14.07
2018-04-16T01:35:09.961Z,14.26
2018-04-16T01:37:44.455Z,14.37
2018-04-16T01:40:17.651Z,14.47
2018-04-16T01:42:51.067Z,14.45
2018-04-16T01:45:24.341Z,14.51
2018-04-16T01:47:57.547Z,14.57
2018-04-16T01:50:30.736Z,14.51
2018-04-16T01:53:03.883Z,14.57
2018-04-16T01:55:37.279Z,14.60
2018-04-16T01:58:10.489Z,14.58
2018-04-16T02:00:43.894Z,14.49
2018-04-16T02:03:18.259Z,14.48
2018-04-16T02:05:52.027Z,14.42
2018-04-16T02:08:25.286Z,14.29
2018-04-16T02:11:02.094Z,14.28
2018-04-16T02:13:36.679Z,13.83
2018-04-16T02:16:09.913Z,13.59
2018-04-16T02:18:43.424Z,13.54
2018-04-16T02:21:17.824Z,13.68
2018-04-16T02:23:51.754Z,13.87
2018-04-16T02:26:24.998Z,13.96
2018-04-16T02:28:58.033Z,14.01
2018-04-16T02:31:31.208Z,14.05
2018-04-16T02:34:04.277Z,13.85
2018-04-16T02:36:37.383Z,13.67
2018-04-16T02:39:12.709Z,13.53
2018-04-16T02:41:45.841Z,13.39
2018-04-16T02:44:18.922Z,13.33
2018-04-16T02:46:52.139Z,13.43
2018-04-16T02:49:25.294Z,13.57
2018-04-16T02:51:58.334Z,13.67
2018-04-16T02:54:31.486Z,13.64
2018-04-16T02:57:04.759Z,13.64
2018-04-16T02:59:37.927Z,13.68
2018-04-16T03:02:11.060Z,13.81
2018-04-16T03:04:44.280Z,13.72
2018-04-16T03:07:17.351Z,13.69
2018-04-16T03:09:50.710Z,13.64
2018-04-16T03:12:24.035Z,13.49
2018-04-16T03:14:57.125Z,13.41
2018-04-16T03:17:30.270Z,13.36
2018-04-16T03:20:03.480Z,13.38
2018-04-16T03:22:36.740Z,13.13
2018-04-16T03:25:09.871Z,13.08
2018-04-16T03:27:43.073Z,13.14
2018-04-16T03:30:16.141Z,12.99
2018-04-16T03:32:50.063Z,12.92
2018-04-16T03:35:23.337Z,12.89
2018-04-16T03:37:56.508Z,12.96
2018-04-16T03:43:32.214Z,13.14
2018-04-16T03:46:05.400Z,13.18
2018-04-16T03:48:38.554Z,12.98
2018-04-16T03:51:10.877Z,12.69
2018-04-16T03:53:40.355Z,12.56
2018-04-16T03:56:08.077Z,12.47
2018-04-16T03:58:35.757Z,12.54
2018-04-16T04:01:03.369Z,12.54
2018-04-16T04:03:31.098Z,12.54
2018-04-16T04:05:58.729Z,12.51
2018-04-16T04:08:26.321Z,12.49
2018-04-16T04:10:54.009Z,12.52
2018-04-16T04:13:21.640Z,12.54
2018-04-16T04:15:49.502Z,12.50
2018-04-16T04:18:17.130Z,12.47
2018-04-16T04:20:44.894Z,12.51
2018-04-16T04:23:24.066Z,12.68
2018-04-16T04:26:03.363Z,12.87
2018-04-16T04:28:42.679Z,13.02
2018-04-16T04:31:10.869Z,13.10
2018-04-16T04:33:38.623Z,13.16
2018-04-16T04:36:06.346Z,13.04
2018-04-16T04:38:34.046Z,12.94
2018-04-16T04:41:01.753Z,12.81
2018-04-16T04:43:29.386Z,12.80
2018-04-16T04:45:57.261Z,12.81
2018-04-16T04:48:24.913Z,12.87
2018-04-16T04:50:52.681Z,12.92
2018-04-16T04:53:20.360Z,12.92
2018-04-16T04:55:48.211Z,12.85
2018-04-16T04:58:15.901Z,12.83
2018-04-16T05:00:43.559Z,12.99
2018-04-16T05:03:11.345Z,13.16
2018-04-16T05:05:39.013Z,13.28
2018-04-16T05:08:06.672Z,13.41
2018-04-16T05:10:34.837Z,13.29
2018-04-16T05:13:02.616Z,13.35
2018-04-16T05:15:30.237Z,13.44
2018-04-16T05:17:57.946Z,13.52
2018-04-16T05:20:25.564Z,13.64
2018-04-16T05:22:53.201Z,13.66
2018-04-16T05:25:20.837Z,13.47
2018-04-16T05:27:48.489Z,14.36
2018-04-16T05:30:16.108Z,14.60
2018-04-16T05:32:43.969Z,14.55
2018-04-16T05:35:11.567Z,14.44
2018-04-16T05:37:39.226Z,14.39
2018-04-16T05:40:06.821Z,14.25
2018-04-16T05:42:34.459Z,14.04
2018-04-16T05:45:02.203Z,13.86
2018-04-16T05:47:29.838Z,13.88
2018-04-16T05:49:57.538Z,13.82
2018-04-16T05:52:25.199Z,13.89
2018-04-16T05:54:52.895Z,13.91
2018-04-16T05:57:20.794Z,13.94
2018-04-16T05:59:48.402Z,13.92
2018-04-16T06:02:16.036Z,13.99
2018-04-16T06:04:43.713Z,14.13
2018-04-16T06:07:11.320Z,14.22
2018-04-16T06:09:38.973Z,14.33
2018-04-16T06:12:06.813Z,14.40
2018-04-16T06:14:34.793Z,14.48
2018-04-16T06:17:02.762Z,14.49
2018-04-16T06:19:30.465Z,14.55
2018-04-16T06:21:58.095Z,14.68
2018-04-16T06:24:26.021Z,14.66
2018-04-16T06:26:53.621Z,14.63
2018-04-16T06:29:21.341Z,14.56
2018-04-16T06:31:48.941Z,14.66
2018-04-16T06:34:16.595Z,14.81
2018-04-16T06:36:44.321Z,14.80
2018-04-16T06:39:11.920Z,14.79
2018-04-16T06:41:39.652Z,14.85
2018-04-16T06:44:07.269Z,14.95
2018-04-16T06:46:34.940Z,14.87
2018-04-16T06:49:02.588Z,14.85
2018-04-16T06:51:30.208Z,14.87
2018-04-16T06:53:57.864Z,14.92
2018-04-16T06:56:25.504Z,14.93
2018-04-16T06:58:53.133Z,15.00
2018-04-16T07:01:20.838Z,15.11
2018-04-16T07:03:48.452Z,15.19
2018-04-16T07:06:16.101Z,15.22
2018-04-16T07:08:43.786Z,15.23
2018-04-16T07:11:11.459Z,15.21
2018-04-16T07:13:39.152Z,15.26
2018-04-16T07:16:06.812Z,15.22
2018-04-16T07:18:34.476Z,15.20
2018-04-16T07:21:02.154Z,15.26
2018-04-16T07:23:29.763Z,15.20
2018-04-16T07:25:57.418Z,15.28
2018-04-16T07:28:25.025Z,15.36
2018-04-16T07:30:52.654Z,15.42
2018-04-16T07:33:20.424Z,15.49
2018-04-16T07:35:48.058Z,15.47
2018-04-16T07:38:15.704Z,15.48
2018-04-16T07:40:43.359Z,15.51
2018-04-16T07:43:11.069Z,15.62
2018-04-16T07:45:38.802Z,15.69
2018-04-16T07:48:06.540Z,15.84
2018-04-16T07:50:34.301Z,15.88
2018-04-16T07:53:02.057Z,15.80
2018-04-16T07:55:29.676Z,15.76
2018-04-16T07:57:57.336Z,15.80
2018-04-16T08:00:24.957Z,15.91
2018-04-16T08:02:52.585Z,16.08
2018-04-16T08:05:20.193Z,16.17
2018-04-16T08:07:47.871Z,16.13
2018-04-16T08:10:15.575Z,16.16
2018-04-16T08:12:43.218Z,16.22
2018-04-16T08:15:10.853Z,16.25
2018-04-16T08:17:38.621Z,16.19
2018-04-16T08:20:06.337Z,16.22
2018-04-16T08:22:33.934Z,16.14
2018-04-16T08:25:01.604Z,16.10
2018-04-16T08:27:29.351Z,16.05
2018-04-16T08:29:57.398Z,16.01
2018-04-16T08:32:25.040Z,15.95
2018-04-16T08:34:52.919Z,15.97
2018-04-16T08:37:20.540Z,16.04
2018-04-16T08:39:48.170Z,16.06
2018-04-16T08:42:15.821Z,16.16
2018-04-16T08:44:43.448Z,16.17
2018-04-16T08:47:11.176Z,16.20
2018-04-16T08:49:39.017Z,16.23
2018-04-16T08:52:06.699Z,16.28
2018-04-16T08:54:34.385Z,16.43
2018-04-16T08:57:02.099Z,16.62
2018-04-16T08:59:29.748Z,16.81
2018-04-16T09:01:57.351Z,16.89
2018-04-16T09:04:25.071Z,16.74
2018-04-16T09:06:52.741Z,16.65
2018-04-16T09:09:20.382Z,16.62
2018-04-16T09:11:48.007Z,16.56
2018-04-16T09:14:16.215Z,16.62
2018-04-16T09:16:43.836Z,16.59
2018-04-16T09:19:11.433Z,16.64
2018-04-16T09:21:39.128Z,16.67
2018-04-16T09:24:06.784Z,16.67
2018-04-16T09:26:34.449Z,16.71
2018-04-16T09:29:02.075Z,16.73
2018-04-16T09:31:29.740Z,16.79
2018-04-16T09:33:57.434Z,16.72
2018-04-16T09:36:25.088Z,16.83
2018-04-16T09:38:52.734Z,16.93
2018-04-16T09:41:20.403Z,16.97
2018-04-16T09:43:48.176Z,17.05
2018-04-16T09:46:15.885Z,17.08
2018-04-16T09:48:43.573Z,17.13
2018-04-16T09:51:11.981Z,17.34
2018-04-16T09:53:39.647Z,17.41
2018-04-16T09:56:07.389Z,17.53
2018-04-16T09:58:35.107Z,17.57
2018-04-16T10:01:02.745Z,17.39
2018-04-16T10:03:30.352Z,17.27
2018-04-16T10:05:58.162Z,17.18
2018-04-16T10:08:25.825Z,17.29
2018-04-16T10:10:53.465Z,17.64
2018-04-16T10:13:21.130Z,17.65
2018-04-16T10:15:48.769Z,17.70
2018-04-16T10:18:16.417Z,17.75
2018-04-16T10:20:44.102Z,17.82
2018-04-16T10:23:11.746Z,17.98
2018-04-16T10:25:39.404Z,17.95
2018-04-16T10:28:07.001Z,18.17
2018-04-16T10:30:34.646Z,18.38
2018-04-16T10:33:02.398Z,18.68
2018-04-16T10:35:30.005Z,19.01
2018-04-16T10:37:57.716Z,19.18
2018-04-16T10:40:25.302Z,19.38
2018-04-16T10:42:52.952Z,19.53
2018-04-16T10:45:20.633Z,19.57
2018-04-16T10:47:48.301Z,19.50
2018-04-16T10:50:15.986Z,19.41
2018-04-16T10:52:43.730Z,19.40
2018-04-16T10:55:11.371Z,19.08
2018-04-16T10:57:39.043Z,18.76
2018-04-16T11:00:06.645Z,18.50
2018-04-16T11:02:34.312Z,18.52
2018-04-16T11:05:01.898Z,19.08
2018-04-16T11:07:29.528Z,19.52
2018-04-16T11:09:57.132Z,19.73
2018-04-16T11:12:24.762Z,19.88
2018-04-16T11:14:52.390Z,19.70
2018-04-16T11:17:20.057Z,19.60
2018-04-16T11:19:47.681Z,19.43
2018-04-16T11:22:15.316Z,19.10
2018-04-16T11:24:42.953Z,18.92
2018-04-16T11:27:10.570Z,19.21
2018-04-16T11:29:38.261Z,19.54
2018-04-16T11:32:05.855Z,19.38
2018-04-16T11:34:33.596Z,19.79
2018-04-16T11:37:01.222Z,20.08
2018-04-16T11:39:28.836Z,20.10
2018-04-16T11:41:56.461Z,20.41
2018-04-16T11:44:24.203Z,20.66
2018-04-16T11:46:53.472Z,20.36
2018-04-16T11:49:22.259Z,20.42
2018-04-16T11:51:51.462Z,20.23
2018-04-16T11:54:22.384Z,20.53
2018-04-16T11:59:41.787Z,20.87
2018-04-16T12:02:09.788Z,20.58
2018-04-16T12:04:37.488Z,20.52
2018-04-16T12:10:16.381Z,20.23
2018-04-16T12:12:50.951Z,20.02
2018-04-16T12:15:18.612Z,20.05
2018-04-16T12:17:47.959Z,20.15
2018-04-16T12:24:28.112Z,20.56
2018-04-16T12:26:58.442Z,21.10
2018-04-16T12:29:40.419Z,21.40
2018-04-16T12:32:09.305Z,21.08
2018-04-16T12:34:45.068Z,21.21
2018-04-16T12:37:22.396Z,21.39
2018-04-16T12:39:50.054Z,21.87
2018-04-16T12:42:17.719Z,21.98
2018-04-16T12:45:02.246Z,21.32
2018-04-16T12:50:18.185Z,21.27
2018-04-16T12:53:02.090Z,21.12
2018-04-16T13:01:54.018Z,20.83
2018-04-16T13:04:21.786Z,20.72
2018-04-16T13:06:50.602Z,20.54
2018-04-16T13:09:22.785Z,20.24
2018-04-16T13:11:50.633Z,20.07
2018-04-16T13:14:24.586Z,20.08
2018-04-16T13:16:56.637Z,20.16
2018-04-16T13:19:25.301Z,20.18
2018-04-16T13:21:53.572Z,20.28
2018-04-16T13:24:21.416Z,21.01
2018-04-16T13:26:50.683Z,21.25
2018-04-16T13:29:20.046Z,21.82
2018-04-16T13:31:47.987Z,22.14
2018-04-16T13:34:16.401Z,21.75
2018-04-16T13:36:44.490Z,21.26
2018-04-16T13:39:12.598Z,20.88
2018-04-16T13:41:40.425Z,20.64
2018-04-16T13:44:09.292Z,20.49
2018-04-16T13:46:37.377Z,20.20
2018-04-16T13:49:13.369Z,20.08
2018-04-16T13:51:51.783Z,19.92
2018-04-16T13:54:25.522Z,19.82
2018-04-16T13:57:01.749Z,19.70
2018-04-16T13:59:40.579Z,19.64
2018-04-16T14:02:08.680Z,19.76
2018-04-16T14:07:40.731Z,20.69
2018-04-16T14:10:08.923Z,20.76
2018-04-16T14:12:36.981Z,20.63
2018-04-16T14:15:04.777Z,20.76
2018-04-16T14:17:32.533Z,21.21
2018-04-16T14:20:03.443Z,21.40
2018-04-16T14:22:31.338Z,21.42
2018-04-16T14:25:00.731Z,21.45
2018-04-16T14:27:28.496Z,21.66
2018-04-16T14:29:56.848Z,21.72
2018-04-16T14:32:25.231Z,21.62
2018-04-16T14:34:53.005Z,21.39
2018-04-16T14:37:20.613Z,21.41
2018-04-16T14:39:48.492Z,21.30
2018-04-16T14:42:21.337Z,20.99
2018-04-16T14:44:49.098Z,21.75
2018-04-16T14:47:16.732Z,22.53
2018-04-16T14:49:44.504Z,22.87
2018-04-16T14:52:12.103Z,23.17
2018-04-16T14:54:39.758Z,23.06
2018-04-16T14:57:07.382Z,22.56
2018-04-16T14:59:35.016Z,22.37
2018-04-16T15:02:02.698Z,22.31
2018-04-16T15:04:30.364Z,21.95
2018-04-16T15:06:58.036Z,21.48
2018-04-16T15:09:25.650Z,21.42
2018-04-16T15:11:53.320Z,22.06
2018-04-16T15:14:20.936Z,22.15
2018-04-16T15:16:48.580Z,22.33
2018-04-16T15:19:16.201Z,22.67
2018-04-16T15:21:43.837Z,22.95
2018-04-16T15:24:11.445Z,22.54
2018-04-16T15:26:39.078Z,22.09
2018-04-16T15:29:06.724Z,22.11
2018-04-16T15:31:34.380Z,22.52
2018-04-16T15:34:01.999Z,22.85
2018-04-16T15:36:29.668Z,22.63
2018-04-16T15:38:57.461Z,22.75
2018-04-16T15:41:25.046Z,23.17
2018-04-16T15:43:52.717Z,23.29
2018-04-16T15:46:20.364Z,23.43
2018-04-16T15:48:48.064Z,23.58
2018-04-16T15:51:15.660Z,23.53
2018-04-16T15:53:43.312Z,23.21
2018-04-16T15:56:10.914Z,22.98
2018-04-16T15:58:38.581Z,23.14
2018-04-16T16:01:06.189Z,23.14
2018-04-16T16:03:33.838Z,23.30
2018-04-16T16:06:01.477Z,23.72
2018-04-16T16:08:29.183Z,23.73
2018-04-16T16:10:56.805Z,23.21
2018-04-16T16:13:24.457Z,22.10
2018-04-16T16:15:52.113Z,21.57
2018-04-16T16:18:19.867Z,21.21
2018-04-16T16:20:47.564Z,20.94
2018-04-16T16:23:15.119Z,20.78
2018-04-16T16:25:42.757Z,20.69
2018-04-16T16:28:10.362Z,20.74
2018-04-16T16:30:38.021Z,21.14
2018-04-16T16:33:05.634Z,21.27
2018-04-16T16:35:33.312Z,21.56
2018-04-16T16:38:00.921Z,21.63
2018-04-16T16:40:28.596Z,21.42
2018-04-16T16:42:56.258Z,21.20
2018-04-16T16:45:23.900Z,21.24
2018-04-16T16:47:51.504Z,21.22
2018-04-16T16:50:19.177Z,21.25
2018-04-16T16:52:46.774Z,21.14
2018-04-16T16:55:14.425Z,21.22
2018-04-16T16:57:42.011Z,21.11
2018-04-16T17:00:09.680Z,20.98
2018-04-16T17:02:37.281Z,20.84
2018-04-16T17:05:05.099Z,20.75
2018-04-16T17:07:32.715Z,20.63
2018-04-16T17:10:00.363Z,20.54
2018-04-16T17:12:28.021Z,20.56
2018-04-16T17:14:55.653Z,20.46
2018-04-16T17:17:23.300Z,20.42
2018-04-16T17:19:50.931Z,20.22
2018-04-16T17:22:18.606Z,20.24
2018-04-16T17:24:46.217Z,20.20
2018-04-16T17:27:13.864Z,20.22
2018-04-16T17:29:41.699Z,20.35
2018-04-16T17:32:09.422Z,20.37
2018-04-16T17:34:37.025Z,20.16
2018-04-16T17:37:04.717Z,20.16
2018-04-16T17:39:32.356Z,20.22
2018-04-16T17:42:00.064Z,20.12
2018-04-16T17:44:27.698Z,20.16
2018-04-16T17:46:55.348Z,20.07
2018-04-16T17:49:22.971Z,19.94
2018-04-16T17:51:50.647Z,19.90
2018-04-16T17:54:18.290Z,19.85
2018-04-16T17:56:45.950Z,19.76
2018-04-16T17:59:13.604Z,19.77
2018-04-16T18:01:41.250Z,19.73
2018-04-16T18:04:08.957Z,19.71
2018-04-16T18:06:36.713Z,19.68
2018-04-16T18:09:04.522Z,19.56
2018-04-16T18:11:32.124Z,19.54
2018-04-16T18:13:59.804Z,19.49
2018-04-16T18:16:27.471Z,19.39
2018-04-16T18:18:55.117Z,19.36
2018-04-16T18:21:22.793Z,19.31
2018-04-16T18:23:50.465Z,19.24
2018-04-16T18:26:18.111Z,19.15
2018-04-16T18:28:45.813Z,19.09
2018-04-16T18:31:13.440Z,19.04
2018-04-16T18:33:41.123Z,18.92
2018-04-16T18:36:08.728Z,18.75
2018-04-16T18:38:36.394Z,18.69
2018-04-16T18:41:04.070Z,18.66
2018-04-16T18:43:31.734Z,18.69
2018-04-16T18:45:59.340Z,18.71
2018-04-16T18:48:26.959Z,18.67
2018-04-16T18:50:54.600Z,18.68
2018-04-16T18:53:22.213Z,18.64
2018-04-16T18:55:49.888Z,18.60
2018-04-16T18:58:17.515Z,18.59
2018-04-16T19:00:45.168Z,18.58
2018-04-16T19:03:13.780Z,18.61
2018-04-16T19:05:41.520Z,18.62
2018-04-16T19:08:09.107Z,18.64
2018-04-16T19:10:36.778Z,18.59
2018-04-16T19:13:04.406Z,18.57
2018-04-16T19:15:32.055Z,18.55
2018-04-16T19:17:59.741Z,18.53
2018-04-16T19:20:32.985Z,18.66
2018-04-16T19:23:01.196Z,18.72
2018-04-16T19:25:28.887Z,18.64
2018-04-16T19:28:02.074Z,18.49
2018-04-16T19:30:31.591Z,18.41
2018-04-16T19:33:04.873Z,18.39
2018-04-16T19:35:32.742Z,18.52
2018-04-16T19:38:00.471Z,18.73
2018-04-16T19:40:28.227Z,18.90
2018-04-16T19:42:55.979Z,19.03
2018-04-16T19:45:23.621Z,19.08
2018-04-16T19:47:51.249Z,19.09
2018-04-16T19:50:18.902Z,19.09
2018-04-16T19:52:46.540Z,19.10
2018-04-16T19:55:14.176Z,19.07
2018-04-16T19:57:47.376Z,18.91
2018-04-16T20:00:15.053Z,18.73
2018-04-16T20:02:48.139Z,18.52
2018-04-16T20:05:15.750Z,18.37
2018-04-16T20:07:43.416Z,18.21
2018-04-16T20:10:11.070Z,18.10
2018-04-16T20:12:38.736Z,18.11
2018-04-16T20:15:06.341Z,18.03
2018-04-16T20:17:33.983Z,17.92
2018-04-16T20:20:01.600Z,17.80
2018-04-16T20:22:29.249Z,17.74
2018-04-16T20:24:56.920Z,17.70
2018-04-16T20:27:24.598Z,17.64
2018-04-16T20:29:52.237Z,17.62
2018-04-16T20:32:19.878Z,17.50
2018-04-16T20:34:47.506Z,17.44
2018-04-16T20:37:15.199Z,17.40
2018-04-16T20:39:42.823Z,17.27
2018-04-16T20:42:10.481Z,16.94
2018-04-16T20:44:38.145Z,16.69
2018-04-16T20:47:05.793Z,16.61
2018-04-16T20:49:33.439Z,16.65
2018-04-16T20:52:01.119Z,16.74
2018-04-16T20:54:28.750Z,16.72
2018-04-16T20:56:56.445Z,16.70
2018-04-16T20:59:24.132Z,16.75
2018-04-16T21:01:51.903Z,16.70
2018-04-16T21:47:36.262Z,15.96
2018-04-16T21:50:15.248Z,15.85
2018-04-16T21:52:48.430Z,15.86
2018-04-16T21:55:44.416Z,15.77
2018-04-16T22:04:20.453Z,15.57
2018-04-16T22:12:37.300Z,15.49
2018-04-16T22:21:03.947Z,15.19
2018-04-16T22:27:09.035Z,15.16
2018-04-16T22:32:27.513Z,15.01
2018-04-16T22:37:44.282Z,14.85
2018-04-16T22:40:24.585Z,14.85
2018-04-16T22:51:56.028Z,14.85
2018-04-16T22:54:49.680Z,14.84
2018-04-16T22:57:37.641Z,14.87
2018-04-16T23:00:20.726Z,14.87
2018-04-16T23:05:38.164Z,14.83
2018-04-16T23:08:19.347Z,14.72
2018-04-16T23:10:55.402Z,14.62
2018-04-16T23:13:32.657Z,14.56
2018-04-16T23:16:17.348Z,14.53
2018-04-16T23:21:44.563Z,14.47
2018-04-16T23:24:17.224Z,14.40
2018-04-16T23:26:58.079Z,14.49
2018-04-16T23:35:52.860Z,14.15
2018-04-16T23:38:27.448Z,14.14
2018-04-16T23:41:05.358Z,14.07
2018-04-16T23:52:55.683Z,14.05
2018-04-16T23:55:27.835Z,13.99
